Time,TemperatureF,DewpointF,PressureIn,WindDirection,WindDirectionDegrees,WindSpeedMPH,WindSpeedGustMPH,Humidity,HourlyPrecipIn,Conditions,Clouds,dailyrainin,SolarRadiationWatts/m^2,SoftwareType,DateUTC
2013-11-05 00:01:00,22.0,15.0,-100.00,ESE,118,1.0,4.0,75,0.00,,,0.00,0.000000,,2013-11-05 05:01:00,
2013-11-05 00:44:00,22.0,15.0,-100.00,ESE,118,1.0,4.0,75,0.00,,,0.00,0.000000,,2013-11-05 05:44:00,
2013-11-05 00:54:00,22.0,15.0,-100.00,ESE,118,1.0,4.0,75,0.00,,,0.00,0.000000,,2013-11-05 05:54:00,
2013-11-05 01:01:00,24.0,17.0,-100.00,East,82,1.0,5.0,75,0.00,,,0.00,0.000000,,2013-11-05 06:01:00,
2013-11-05 01:42:00,24.0,17.0,-100.00,East,82,1.0,5.0,75,0.00,,,0.00,0.000000,,2013-11-05 06:42:00,
2013-11-05 01:52:00,24.0,17.0,-100.00,East,82,1.0,5.0,75,0.00,,,0.00,0.000000,,2013-11-05 06:52:00,
2013-11-05 02:01:00,25.0,15.0,-100.00,East,84,2.0,5.0,66,0.00,,,0.00,0.000000,,2013-11-05 07:01:00,
2013-11-05 02:43:00,25.0,15.0,-100.00,East,84,2.0,5.0,66,0.00,,,0.00,0.000000,,2013-11-05 07:43:00,
2013-11-05 02:52:00,25.0,15.0,-100.00,East,84,2.0,5.0,66,0.00,,,0.00,0.000000,,2013-11-05 07:52:00,
2013-11-05 03:01:00,23.0,15.0,-100.00,ENE,73,1.0,5.0,70,0.00,,,0.00,0.000000,,2013-11-05 08:01:00,
2013-11-05 03:22:00,23.0,15.0,-100.00,ENE,73,1.0,5.0,70,0.00,,,0.00,0.000000,,2013-11-05 08:22:00,
2013-11-05 03:32:00,23.0,15.0,-100.00,ENE,73,1.0,5.0,70,0.00,,,0.00,0.000000,,2013-11-05 08:32:00,
2013-11-05 03:42:00,23.0,15.0,-100.00,ENE,73,1.0,5.0,70,0.00,,,0.00,0.000000,,2013-11-05 08:42:00,
2013-11-05 03:52:00,23.0,15.0,-100.00,ENE,73,1.0,5.0,70,0.00,,,0.00,0.000000,,2013-11-05 08:52:00,
2013-11-05 04:01:00,21.0,15.0,-100.00,ESE,110,2.0,6.0,77,0.00,,,0.00,0.000000,,2013-11-05 09:01:00,
2013-11-05 04:43:00,21.0,15.0,-100.00,ESE,110,2.0,6.0,77,0.00,,,0.00,0.000000,,2013-11-05 09:43:00,
2013-11-05 04:53:00,21.0,15.0,-100.00,ESE,110,2.0,6.0,77,0.00,,,0.00,0.000000,,2013-11-05 09:53:00,
2013-11-05 05:01:00,26.0,12.0,-100.00,South,176,3.0,11.0,56,0.00,,,0.00,0.000000,,2013-11-05 10:01:00,
2013-11-05 05:43:00,26.0,12.0,-100.00,South,176,3.0,11.0,56,0.00,,,0.00,0.000000,,2013-11-05 10:43:00,
2013-11-05 05:53:00,26.0,12.0,-100.00,South,176,3.0,11.0,56,0.00,,,0.00,0.000000,,2013-11-05 10:53:00,
2013-11-05 09:01:00,38.0,19.0,-100.00,SW,236,2.0,8.0,46,0.00,,,0.00,311.000000,,2013-11-05 14:01:00,
2013-11-05 09:42:00,38.0,19.0,-100.00,SW,236,2.0,8.0,46,0.00,,,0.00,311.000000,,2013-11-05 14:42:00,
2013-11-05 09:52:00,38.0,19.0,-100.00,SW,236,2.0,8.0,46,0.00,,,0.00,311.000000,,2013-11-05 14:52:00,
2013-11-05 10:01:00,42.0,22.0,-100.00,SSW,213,1.0,10.0,45,0.00,,,0.00,482.000000,,2013-11-05 15:01:00,
2013-11-05 10:53:00,42.0,22.0,-100.00,SSW,213,1.0,10.0,45,0.00,,,0.00,482.000000,,2013-11-05 15:53:00,
2013-11-05 11:01:00,43.0,23.0,-100.00,WNW,291,5.0,11.0,44,0.00,,,0.00,595.000000,,2013-11-05 16:01:00,
2013-11-05 11:43:00,43.0,23.0,-100.00,WNW,291,5.0,11.0,44,0.00,,,0.00,595.000000,,2013-11-05 16:43:00,
2013-11-05 11:53:00,43.0,23.0,-100.00,WNW,291,5.0,11.0,44,0.00,,,0.00,595.000000,,2013-11-05 16:53:00,
2013-11-05 12:01:00,46.0,24.0,-100.00,West,259,4.0,11.0,42,0.00,,,0.00,590.000000,,2013-11-05 17:01:00,
2013-11-05 12:22:00,46.0,24.0,-100.00,West,259,4.0,11.0,42,0.00,,,0.00,590.000000,,2013-11-05 17:22:00,
2013-11-05 12:32:00,46.0,24.0,-100.00,West,259,4.0,11.0,42,0.00,,,0.00,590.000000,,2013-11-05 17:32:00,
2013-11-05 12:42:00,46.0,24.0,-100.00,West,259,4.0,11.0,42,0.00,,,0.00,590.000000,,2013-11-05 17:42:00,
2013-11-05 12:52:00,46.0,24.0,-100.00,West,259,4.0,11.0,42,0.00,,,0.00,590.000000,,2013-11-05 17:52:00,
2013-11-05 13:01:00,47.0,25.0,-100.00,WSW,244,4.0,12.0,42,0.00,,,0.00,496.000000,,2013-11-05 18:01:00,
2013-11-05 13:42:00,47.0,25.0,-100.00,WSW,244,4.0,12.0,42,0.00,,,0.00,496.000000,,2013-11-05 18:42:00,
2013-11-05 13:52:00,47.0,25.0,-100.00,WSW,244,4.0,12.0,42,0.00,,,0.00,496.000000,,2013-11-05 18:52:00,
2013-11-05 14:01:00,50.0,26.0,-100.00,WSW,245,3.0,9.0,39,0.00,,,0.00,430.000000,,2013-11-05 19:01:00,
2013-11-05 14:42:00,50.0,26.0,-100.00,WSW,245,3.0,9.0,39,0.00,,,0.00,430.000000,,2013-11-05 19:42:00,
2013-11-05 14:52:00,50.0,26.0,-100.00,WSW,245,3.0,9.0,39,0.00,,,0.00,430.000000,,2013-11-05 19:52:00,
2013-11-05 15:01:00,46.0,27.0,-100.00,NW,320,2.0,8.0,48,0.00,,,0.00,176.000000,,2013-11-05 20:01:00,
2013-11-05 15:22:00,46.0,27.0,-100.00,NW,320,2.0,8.0,48,0.00,,,0.00,176.000000,,2013-11-05 20:22:00,
2013-11-05 15:32:00,46.0,27.0,-100.00,NW,320,2.0,8.0,48,0.00,,,0.00,176.000000,,2013-11-05 20:32:00,
2013-11-05 15:43:00,46.0,27.0,-100.00,NW,320,2.0,8.0,48,0.00,,,0.00,176.000000,,2013-11-05 20:43:00,
2013-11-05 15:53:00,46.0,27.0,-100.00,NW,320,2.0,8.0,48,0.00,,,0.00,176.000000,,2013-11-05 20:53:00,
2013-11-05 16:01:00,44.0,27.0,-100.00,SW,236,1.0,8.0,50,0.00,,,0.00,72.000000,,2013-11-05 21:01:00,
2013-11-05 16:22:00,44.0,27.0,-100.00,SW,236,1.0,8.0,50,0.00,,,0.00,72.000000,,2013-11-05 21:22:00,
2013-11-05 16:33:00,44.0,27.0,-100.00,SW,236,1.0,8.0,50,0.00,,,0.00,72.000000,,2013-11-05 21:33:00,
2013-11-05 16:44:00,44.0,27.0,-100.00,SW,236,1.0,8.0,50,0.00,,,0.00,72.000000,,2013-11-05 21:44:00,
2013-11-05 16:54:00,44.0,27.0,-100.00,SW,236,1.0,8.0,50,0.00,,,0.00,72.000000,,2013-11-05 21:54:00,
2013-11-05 17:01:00,39.0,27.0,-100.00,North,9,0.0,4.0,62,0.00,,,0.00,9.000000,,2013-11-05 22:01:00,
2013-11-05 17:23:00,39.0,27.0,-100.00,North,9,0.0,4.0,62,0.00,,,0.00,9.000000,,2013-11-05 22:23:00,
2013-11-05 17:34:00,39.0,27.0,-100.00,North,9,0.0,4.0,62,0.00,,,0.00,9.000000,,2013-11-05 22:34:00,
2013-11-05 17:44:00,39.0,27.0,-100.00,North,9,0.0,4.0,62,0.00,,,0.00,9.000000,,2013-11-05 22:44:00,
2013-11-05 17:53:00,39.0,27.0,-100.00,North,9,0.0,4.0,62,0.00,,,0.00,9.000000,,2013-11-05 22:53:00,
2013-11-05 18:01:00,32.0,25.0,-100.00,ESE,115,1.0,5.0,76,0.00,,,0.00,0.000000,,2013-11-05 23:01:00,
2013-11-05 18:42:00,32.0,25.0,-100.00,ESE,115,1.0,5.0,76,0.00,,,0.00,0.000000,,2013-11-05 23:42:00,
2013-11-05 18:54:00,32.0,25.0,-100.00,ESE,115,1.0,5.0,76,0.00,,,0.00,0.000000,,2013-11-05 23:54:00,
2013-11-05 19:01:00,36.0,28.0,-100.00,NNE,29,1.0,4.0,71,0.00,,,0.00,0.000000,,2013-11-06 00:01:00,
2013-11-05 19:22:00,36.0,28.0,-100.00,NNE,29,1.0,4.0,71,0.00,,,0.00,0.000000,,2013-11-06 00:22:00,
2013-11-05 19:32:00,36.0,28.0,-100.00,NNE,29,1.0,4.0,71,0.00,,,0.00,0.000000,,2013-11-06 00:32:00,
2013-11-05 19:42:00,36.0,28.0,-100.00,NNE,29,1.0,4.0,71,0.00,,,0.00,0.000000,,2013-11-06 00:42:00,
2013-11-05 19:52:00,36.0,28.0,-100.00,NNE,29,1.0,4.0,71,0.00,,,0.00,0.000000,,2013-11-06 00:52:00,
2013-11-05 20:01:00,39.0,29.0,-100.00,NNE,29,1.0,7.0,67,0.00,,,0.00,0.000000,,2013-11-06 01:01:00,
2013-11-05 20:22:00,39.0,29.0,-100.00,NNE,29,1.0,7.0,67,0.00,,,0.00,0.000000,,2013-11-06 01:22:00,
2013-11-05 20:32:00,39.0,29.0,-100.00,NNE,29,1.0,7.0,67,0.00,,,0.00,0.000000,,2013-11-06 01:32:00,
2013-11-05 20:42:00,39.0,29.0,-100.00,NNE,29,1.0,7.0,67,0.00,,,0.00,0.000000,,2013-11-06 01:42:00,
2013-11-05 20:52:00,39.0,29.0,-100.00,NNE,29,1.0,7.0,67,0.00,,,0.00,0.000000,,2013-11-06 01:52:00,
2013-11-05 21:01:00,37.0,29.0,-100.00,SSE,155,1.0,5.0,73,0.00,,,0.00,0.000000,,2013-11-06 02:01:00,
2013-11-05 21:42:00,37.0,29.0,-100.00,SSE,155,1.0,5.0,73,0.00,,,0.00,0.000000,,2013-11-06 02:42:00,
2013-11-05 21:52:00,37.0,29.0,-100.00,SSE,155,1.0,5.0,73,0.00,,,0.00,0.000000,,2013-11-06 02:52:00,
2013-11-05 22:01:00,34.0,29.0,-100.00,ESE,109,1.0,4.0,82,0.00,,,0.00,0.000000,,2013-11-06 03:01:00,
2013-11-05 22:44:00,34.0,29.0,-100.00,ESE,109,1.0,4.0,82,0.00,,,0.00,0.000000,,2013-11-06 03:44:00,
2013-11-05 22:55:00,34.0,29.0,-100.00,ESE,109,1.0,4.0,82,0.00,,,0.00,0.000000,,2013-11-06 03:55:00,
2013-11-05 23:01:00,30.0,27.0,-100.00,ESE,116,1.0,4.0,87,0.00,,,0.00,0.000000,,2013-11-06 04:01:00,
2013-11-05 23:43:00,30.0,27.0,-100.00,ESE,116,1.0,4.0,87,0.00,,,0.00,0.000000,,2013-11-06 04:43:00,
2013-11-05 23:54:00,30.0,27.0,-100.00,ESE,116,1.0,4.0,87,0.00,,,0.00,0.000000,,2013-11-06 04:54:00,